sensor_id;sensor_type;location;lat;lon;timestamp;temperature;humidity
74809;DHT22;63338;39.544;2.596;2023-06-14T00:02:25;23.80;82.60
74809;DHT22;63338;39.544;2.596;2023-06-14T00:05:01;23.80;83.30
74809;DHT22;63338;39.544;2.596;2023-06-14T00:07:38;23.80;83.40
74809;DHT22;63338;39.544;2.596;2023-06-14T00:10:08;23.80;83.50
74809;DHT22;63338;39.544;2.596;2023-06-14T00:12:35;23.60;83.60
74809;DHT22;63338;39.544;2.596;2023-06-14T00:15:02;23.80;83.50
74809;DHT22;63338;39.544;2.596;2023-06-14T00:17:28;23.70;82.90
74809;DHT22;63338;39.544;2.596;2023-06-14T00:20:01;23.70;82.60
74809;DHT22;63338;39.544;2.596;2023-06-14T00:22:30;23.80;82.00
74809;DHT22;63338;39.544;2.596;2023-06-14T00:24:57;23.80;81.50
74809;DHT22;63338;39.544;2.596;2023-06-14T00:27:23;23.80;81.40
74809;DHT22;63338;39.544;2.596;2023-06-14T00:29:50;23.80;81.20
74809;DHT22;63338;39.544;2.596;2023-06-14T00:32:17;23.80;81.10
74809;DHT22;63338;39.544;2.596;2023-06-14T00:34:44;23.90;81.00
74809;DHT22;63338;39.544;2.596;2023-06-14T00:37:10;23.90;80.60
74809;DHT22;63338;39.544;2.596;2023-06-14T00:39:36;23.90;80.30
74809;DHT22;63338;39.544;2.596;2023-06-14T00:42:02;23.90;79.90
74809;DHT22;63338;39.544;2.596;2023-06-14T00:44:28;23.80;80.00
74809;DHT22;63338;39.544;2.596;2023-06-14T00:46:54;23.90;79.90
74809;DHT22;63338;39.544;2.596;2023-06-14T00:49:20;23.90;79.60
74809;DHT22;63338;39.544;2.596;2023-06-14T00:51:46;23.80;79.60
74809;DHT22;63338;39.544;2.596;2023-06-14T00:54:15;23.80;79.40
74809;DHT22;63338;39.544;2.596;2023-06-14T00:56:43;24.00;78.50
74809;DHT22;63338;39.544;2.596;2023-06-14T00:59:10;23.80;77.30
74809;DHT22;63338;39.544;2.596;2023-06-14T01:01:37;23.90;76.90
74809;DHT22;63338;39.544;2.596;2023-06-14T01:04:04;23.90;77.40
74809;DHT22;63338;39.544;2.596;2023-06-14T01:09:51;23.90;77.00
74809;DHT22;63338;39.544;2.596;2023-06-14T01:12:35;23.90;77.00
74809;DHT22;63338;39.544;2.596;2023-06-14T01:15:04;23.90;77.00
74809;DHT22;63338;39.544;2.596;2023-06-14T01:17:31;23.90;76.50
74809;DHT22;63338;39.544;2.596;2023-06-14T01:20:02;23.80;75.70
74809;DHT22;63338;39.544;2.596;2023-06-14T01:22:36;23.80;75.10
74809;DHT22;63338;39.544;2.596;2023-06-14T01:25:03;23.80;74.40
74809;DHT22;63338;39.544;2.596;2023-06-14T01:27:30;23.70;73.70
74809;DHT22;63338;39.544;2.596;2023-06-14T01:29:59;23.80;73.30
74809;DHT22;63338;39.544;2.596;2023-06-14T01:32:30;23.80;73.70
74809;DHT22;63338;39.544;2.596;2023-06-14T01:34:56;23.80;74.40
74809;DHT22;63338;39.544;2.596;2023-06-14T01:37:22;23.80;73.90
74809;DHT22;63338;39.544;2.596;2023-06-14T01:39:49;23.80;74.20
74809;DHT22;63338;39.544;2.596;2023-06-14T01:42:23;23.70;73.80
74809;DHT22;63338;39.544;2.596;2023-06-14T01:44:51;23.80;72.70
74809;DHT22;63338;39.544;2.596;2023-06-14T01:47:22;23.70;73.50
74809;DHT22;63338;39.544;2.596;2023-06-14T01:49:48;23.70;74.10
74809;DHT22;63338;39.544;2.596;2023-06-14T01:52:14;23.70;73.10
74809;DHT22;63338;39.544;2.596;2023-06-14T01:54:41;23.80;73.20
74809;DHT22;63338;39.544;2.596;2023-06-14T01:57:08;23.80;73.50
74809;DHT22;63338;39.544;2.596;2023-06-14T01:59:36;23.80;73.40
74809;DHT22;63338;39.544;2.596;2023-06-14T02:02:02;23.90;73.50
74809;DHT22;63338;39.544;2.596;2023-06-14T02:04:29;23.80;74.00
74809;DHT22;63338;39.544;2.596;2023-06-14T02:06:55;23.80;74.70
74809;DHT22;63338;39.544;2.596;2023-06-14T02:09:21;23.80;74.50
74809;DHT22;63338;39.544;2.596;2023-06-14T02:11:47;23.70;74.90
74809;DHT22;63338;39.544;2.596;2023-06-14T02:14:13;23.70;75.50
74809;DHT22;63338;39.544;2.596;2023-06-14T02:16:40;23.80;75.90
74809;DHT22;63338;39.544;2.596;2023-06-14T02:19:17;23.70;76.30
74809;DHT22;63338;39.544;2.596;2023-06-14T02:21:44;23.70;76.50
74809;DHT22;63338;39.544;2.596;2023-06-14T02:24:10;23.60;77.50
74809;DHT22;63338;39.544;2.596;2023-06-14T02:26:37;23.60;77.00
74809;DHT22;63338;39.544;2.596;2023-06-14T02:29:04;23.60;77.60
74809;DHT22;63338;39.544;2.596;2023-06-14T02:31:35;23.50;78.20
74809;DHT22;63338;39.544;2.596;2023-06-14T02:34:02;23.50;78.00
74809;DHT22;63338;39.544;2.596;2023-06-14T02:36:28;23.40;77.50
74809;DHT22;63338;39.544;2.596;2023-06-14T02:38:57;23.30;76.90
74809;DHT22;63338;39.544;2.596;2023-06-14T02:41:24;23.20;77.00
74809;DHT22;63338;39.544;2.596;2023-06-14T02:43:50;23.20;77.50
74809;DHT22;63338;39.544;2.596;2023-06-14T02:46:16;23.10;77.20
74809;DHT22;63338;39.544;2.596;2023-06-14T02:48:42;23.00;77.60
74809;DHT22;63338;39.544;2.596;2023-06-14T02:51:09;23.10;77.10
74809;DHT22;63338;39.544;2.596;2023-06-14T02:53:36;22.90;76.70
74809;DHT22;63338;39.544;2.596;2023-06-14T02:56:05;23.00;76.80
74809;DHT22;63338;39.544;2.596;2023-06-14T02:58:31;22.80;76.40
74809;DHT22;63338;39.544;2.596;2023-06-14T03:00:57;22.70;76.20
74809;DHT22;63338;39.544;2.596;2023-06-14T03:03:23;22.60;76.40
74809;DHT22;63338;39.544;2.596;2023-06-14T03:05:50;22.60;76.00
74809;DHT22;63338;39.544;2.596;2023-06-14T03:08:17;22.50;75.40
74809;DHT22;63338;39.544;2.596;2023-06-14T03:10:46;22.50;75.00
74809;DHT22;63338;39.544;2.596;2023-06-14T03:13:13;22.40;75.20
74809;DHT22;63338;39.544;2.596;2023-06-14T03:15:39;22.40;75.30
74809;DHT22;63338;39.544;2.596;2023-06-14T03:18:11;22.30;75.20
74809;DHT22;63338;39.544;2.596;2023-06-14T03:20:38;22.30;74.90
74809;DHT22;63338;39.544;2.596;2023-06-14T03:23:07;22.30;75.20
74809;DHT22;63338;39.544;2.596;2023-06-14T03:25:37;22.20;74.70
74809;DHT22;63338;39.544;2.596;2023-06-14T03:28:06;22.20;75.00
74809;DHT22;63338;39.544;2.596;2023-06-14T03:30:33;22.10;74.70
74809;DHT22;63338;39.544;2.596;2023-06-14T03:32:59;22.20;75.50
74809;DHT22;63338;39.544;2.596;2023-06-14T03:35:27;22.10;75.20
74809;DHT22;63338;39.544;2.596;2023-06-14T03:37:54;22.20;74.80
74809;DHT22;63338;39.544;2.596;2023-06-14T03:40:21;22.00;74.10
74809;DHT22;63338;39.544;2.596;2023-06-14T03:42:47;22.10;73.90
74809;DHT22;63338;39.544;2.596;2023-06-14T03:45:13;22.20;73.80
74809;DHT22;63338;39.544;2.596;2023-06-14T03:47:39;22.20;73.40
74809;DHT22;63338;39.544;2.596;2023-06-14T03:50:06;22.20;73.60
74809;DHT22;63338;39.544;2.596;2023-06-14T03:52:32;22.20;73.50
74809;DHT22;63338;39.544;2.596;2023-06-14T03:54:59;22.30;73.70
74809;DHT22;63338;39.544;2.596;2023-06-14T03:57:26;22.30;74.20
74809;DHT22;63338;39.544;2.596;2023-06-14T03:59:52;22.30;74.50
74809;DHT22;63338;39.544;2.596;2023-06-14T04:02:18;22.40;74.50
74809;DHT22;63338;39.544;2.596;2023-06-14T04:04:45;22.40;75.00
74809;DHT22;63338;39.544;2.596;2023-06-14T04:07:12;22.50;75.00
74809;DHT22;63338;39.544;2.596;2023-06-14T04:09:39;22.50;75.10
74809;DHT22;63338;39.544;2.596;2023-06-14T04:12:16;22.50;75.00
74809;DHT22;63338;39.544;2.596;2023-06-14T04:14:43;22.70;75.10
74809;DHT22;63338;39.544;2.596;2023-06-14T04:17:10;22.60;75.50
74809;DHT22;63338;39.544;2.596;2023-06-14T04:19:36;22.70;75.70
74809;DHT22;63338;39.544;2.596;2023-06-14T04:22:02;22.80;75.70
74809;DHT22;63338;39.544;2.596;2023-06-14T04:24:28;22.80;75.60
74809;DHT22;63338;39.544;2.596;2023-06-14T04:27:00;22.80;75.80
74809;DHT22;63338;39.544;2.596;2023-06-14T04:29:30;22.80;75.80
74809;DHT22;63338;39.544;2.596;2023-06-14T04:31:58;22.80;76.00
74809;DHT22;63338;39.544;2.596;2023-06-14T04:34:28;22.90;75.90
74809;DHT22;63338;39.544;2.596;2023-06-14T04:36:58;22.90;76.00
74809;DHT22;63338;39.544;2.596;2023-06-14T04:39:25;22.90;75.90
74809;DHT22;63338;39.544;2.596;2023-06-14T04:41:53;22.90;76.00
74809;DHT22;63338;39.544;2.596;2023-06-14T04:44:23;23.00;76.20
74809;DHT22;63338;39.544;2.596;2023-06-14T04:46:59;22.90;76.20
74809;DHT22;63338;39.544;2.596;2023-06-14T04:49:26;22.90;76.20
74809;DHT22;63338;39.544;2.596;2023-06-14T04:51:53;22.90;76.20
74809;DHT22;63338;39.544;2.596;2023-06-14T04:54:27;23.00;76.40
74809;DHT22;63338;39.544;2.596;2023-06-14T04:56:57;23.00;76.40
74809;DHT22;63338;39.544;2.596;2023-06-14T04:59:23;22.90;76.80
74809;DHT22;63338;39.544;2.596;2023-06-14T05:01:54;23.00;76.70
74809;DHT22;63338;39.544;2.596;2023-06-14T05:04:24;23.00;76.60
74809;DHT22;63338;39.544;2.596;2023-06-14T05:06:52;23.10;77.00
74809;DHT22;63338;39.544;2.596;2023-06-14T05:09:24;23.10;76.50
74809;DHT22;63338;39.544;2.596;2023-06-14T05:11:52;23.10;76.80
74809;DHT22;63338;39.544;2.596;2023-06-14T05:14:19;23.10;77.20
74809;DHT22;63338;39.544;2.596;2023-06-14T05:16:46;23.20;78.60
74809;DHT22;63338;39.544;2.596;2023-06-14T05:19:14;23.20;78.80
74809;DHT22;63338;39.544;2.596;2023-06-14T05:21:41;23.20;78.90
74809;DHT22;63338;39.544;2.596;2023-06-14T05:24:10;23.20;78.90
74809;DHT22;63338;39.544;2.596;2023-06-14T05:26:37;23.30;78.80
74809;DHT22;63338;39.544;2.596;2023-06-14T05:29:03;23.30;79.50
74809;DHT22;63338;39.544;2.596;2023-06-14T05:31:32;23.30;80.40
74809;DHT22;63338;39.544;2.596;2023-06-14T05:33:58;23.30;79.90
74809;DHT22;63338;39.544;2.596;2023-06-14T05:36:24;23.40;80.60
74809;DHT22;63338;39.544;2.596;2023-06-14T05:38:51;23.40;80.50
74809;DHT22;63338;39.544;2.596;2023-06-14T05:41:29;23.30;80.60
74809;DHT22;63338;39.544;2.596;2023-06-14T05:44:01;23.40;80.50
74809;DHT22;63338;39.544;2.596;2023-06-14T05:46:27;23.50;80.50
74809;DHT22;63338;39.544;2.596;2023-06-14T05:48:54;23.40;80.50
74809;DHT22;63338;39.544;2.596;2023-06-14T05:51:35;23.30;80.80
74809;DHT22;63338;39.544;2.596;2023-06-14T05:54:11;23.40;80.80
74809;DHT22;63338;39.544;2.596;2023-06-14T05:56:37;23.40;80.20
74809;DHT22;63338;39.544;2.596;2023-06-14T05:59:06;23.40;80.40
74809;DHT22;63338;39.544;2.596;2023-06-14T06:01:32;23.50;80.10
74809;DHT22;63338;39.544;2.596;2023-06-14T06:04:02;23.50;79.40
74809;DHT22;63338;39.544;2.596;2023-06-14T06:06:28;23.60;79.10
74809;DHT22;63338;39.544;2.596;2023-06-14T06:08:55;23.60;78.40
74809;DHT22;63338;39.544;2.596;2023-06-14T06:11:22;23.60;78.70
74809;DHT22;63338;39.544;2.596;2023-06-14T06:13:48;23.60;79.00
74809;DHT22;63338;39.544;2.596;2023-06-14T06:16:15;23.70;78.20
74809;DHT22;63338;39.544;2.596;2023-06-14T06:18:41;23.70;77.90
74809;DHT22;63338;39.544;2.596;2023-06-14T06:21:07;23.80;77.40
74809;DHT22;63338;39.544;2.596;2023-06-14T06:23:33;23.90;77.20
74809;DHT22;63338;39.544;2.596;2023-06-14T06:25:59;24.00;76.40
74809;DHT22;63338;39.544;2.596;2023-06-14T06:28:25;24.00;75.30
74809;DHT22;63338;39.544;2.596;2023-06-14T06:30:52;24.10;75.40
74809;DHT22;63338;39.544;2.596;2023-06-14T06:33:22;24.10;75.20
74809;DHT22;63338;39.544;2.596;2023-06-14T06:35:49;24.20;74.80
74809;DHT22;63338;39.544;2.596;2023-06-14T06:38:27;24.40;74.60
74809;DHT22;63338;39.544;2.596;2023-06-14T06:41:51;24.50;74.20
74809;DHT22;63338;39.544;2.596;2023-06-14T06:44:17;24.70;74.20
74809;DHT22;63338;39.544;2.596;2023-06-14T06:46:44;24.70;74.30
74809;DHT22;63338;39.544;2.596;2023-06-14T06:49:10;24.70;74.40
74809;DHT22;63338;39.544;2.596;2023-06-14T06:51:42;24.60;74.40
74809;DHT22;63338;39.544;2.596;2023-06-14T06:54:10;24.60;74.60
74809;DHT22;63338;39.544;2.596;2023-06-14T06:56:36;24.60;75.30
74809;DHT22;63338;39.544;2.596;2023-06-14T06:59:02;24.90;76.30
74809;DHT22;63338;39.544;2.596;2023-06-14T07:01:29;24.90;76.60
74809;DHT22;63338;39.544;2.596;2023-06-14T07:03:55;25.10;76.90
74809;DHT22;63338;39.544;2.596;2023-06-14T07:06:24;25.20;76.30
74809;DHT22;63338;39.544;2.596;2023-06-14T07:08:52;25.40;75.10
74809;DHT22;63338;39.544;2.596;2023-06-14T07:11:19;25.40;73.80
74809;DHT22;63338;39.544;2.596;2023-06-14T07:13:45;25.60;73.80
74809;DHT22;63338;39.544;2.596;2023-06-14T07:16:12;25.60;73.70
74809;DHT22;63338;39.544;2.596;2023-06-14T07:18:38;25.70;73.70
74809;DHT22;63338;39.544;2.596;2023-06-14T07:21:05;25.80;73.00
74809;DHT22;63338;39.544;2.596;2023-06-14T07:23:31;25.80;71.90
74809;DHT22;63338;39.544;2.596;2023-06-14T07:25:57;25.70;71.00
74809;DHT22;63338;39.544;2.596;2023-06-14T07:28:27;25.70;70.70
74809;DHT22;63338;39.544;2.596;2023-06-14T07:31:30;25.60;70.30
74809;DHT22;63338;39.544;2.596;2023-06-14T07:33:57;25.70;70.20
74809;DHT22;63338;39.544;2.596;2023-06-14T07:36:23;25.60;69.90
74809;DHT22;63338;39.544;2.596;2023-06-14T07:38:49;25.60;69.70
74809;DHT22;63338;39.544;2.596;2023-06-14T07:41:16;25.70;69.60
74809;DHT22;63338;39.544;2.596;2023-06-14T07:43:42;25.80;70.00
74809;DHT22;63338;39.544;2.596;2023-06-14T07:46:09;25.80;69.90
74809;DHT22;63338;39.544;2.596;2023-06-14T07:48:35;25.80;69.20
74809;DHT22;63338;39.544;2.596;2023-06-14T07:51:02;25.80;69.00
74809;DHT22;63338;39.544;2.596;2023-06-14T07:53:28;25.90;69.50
74809;DHT22;63338;39.544;2.596;2023-06-14T07:55:54;25.90;69.40
74809;DHT22;63338;39.544;2.596;2023-06-14T07:58:21;25.90;69.50
74809;DHT22;63338;39.544;2.596;2023-06-14T08:00:48;26.00;69.40
74809;DHT22;63338;39.544;2.596;2023-06-14T08:03:15;25.90;68.80
74809;DHT22;63338;39.544;2.596;2023-06-14T08:05:44;25.90;68.40
74809;DHT22;63338;39.544;2.596;2023-06-14T08:08:14;25.80;68.30
74809;DHT22;63338;39.544;2.596;2023-06-14T08:10:59;25.80;68.10
74809;DHT22;63338;39.544;2.596;2023-06-14T08:13:25;25.80;67.90
74809;DHT22;63338;39.544;2.596;2023-06-14T08:15:51;25.90;67.70
74809;DHT22;63338;39.544;2.596;2023-06-14T08:18:27;25.90;67.10
74809;DHT22;63338;39.544;2.596;2023-06-14T08:21:18;26.00;67.50
74809;DHT22;63338;39.544;2.596;2023-06-14T08:23:45;25.90;68.10
74809;DHT22;63338;39.544;2.596;2023-06-14T08:26:14;25.80;68.20
74809;DHT22;63338;39.544;2.596;2023-06-14T08:28:40;25.90;67.90
74809;DHT22;63338;39.544;2.596;2023-06-14T08:31:08;26.00;68.30
74809;DHT22;63338;39.544;2.596;2023-06-14T08:33:34;26.10;68.20
74809;DHT22;63338;39.544;2.596;2023-06-14T08:36:01;26.30;67.80
74809;DHT22;63338;39.544;2.596;2023-06-14T08:38:27;26.40;66.50
74809;DHT22;63338;39.544;2.596;2023-06-14T08:40:57;26.60;65.60
74809;DHT22;63338;39.544;2.596;2023-06-14T08:43:24;26.80;65.00
74809;DHT22;63338;39.544;2.596;2023-06-14T08:46:03;27.00;64.30
74809;DHT22;63338;39.544;2.596;2023-06-14T08:48:30;27.10;62.80
74809;DHT22;63338;39.544;2.596;2023-06-14T08:51:00;27.20;62.60
74809;DHT22;63338;39.544;2.596;2023-06-14T08:53:31;27.10;62.50
74809;DHT22;63338;39.544;2.596;2023-06-14T08:59:06;27.20;62.40
74809;DHT22;63338;39.544;2.596;2023-06-14T09:01:35;27.30;62.60
74809;DHT22;63338;39.544;2.596;2023-06-14T09:04:03;27.30;62.70
74809;DHT22;63338;39.544;2.596;2023-06-14T09:06:39;27.30;63.00
74809;DHT22;63338;39.544;2.596;2023-06-14T09:09:15;27.30;61.60
74809;DHT22;63338;39.544;2.596;2023-06-14T09:11:42;27.50;60.90
74809;DHT22;63338;39.544;2.596;2023-06-14T09:14:09;27.70;60.10
74809;DHT22;63338;39.544;2.596;2023-06-14T09:16:35;27.70;60.00
74809;DHT22;63338;39.544;2.596;2023-06-14T09:19:02;27.60;60.00
74809;DHT22;63338;39.544;2.596;2023-06-14T09:21:35;27.50;60.50
74809;DHT22;63338;39.544;2.596;2023-06-14T09:24:03;27.50;60.90
74809;DHT22;63338;39.544;2.596;2023-06-14T09:26:32;27.60;61.20
74809;DHT22;63338;39.544;2.596;2023-06-14T09:28:58;27.80;61.10
74809;DHT22;63338;39.544;2.596;2023-06-14T09:31:24;27.80;60.90
74809;DHT22;63338;39.544;2.596;2023-06-14T09:33:51;27.90;61.40
74809;DHT22;63338;39.544;2.596;2023-06-14T09:36:22;27.90;62.40
74809;DHT22;63338;39.544;2.596;2023-06-14T09:38:53;27.70;62.40
74809;DHT22;63338;39.544;2.596;2023-06-14T09:41:20;27.70;62.50
74809;DHT22;63338;39.544;2.596;2023-06-14T09:43:49;27.60;63.30
74809;DHT22;63338;39.544;2.596;2023-06-14T09:46:18;27.50;64.00
74809;DHT22;63338;39.544;2.596;2023-06-14T09:48:45;27.30;64.80
74809;DHT22;63338;39.544;2.596;2023-06-14T09:51:18;27.20;67.70
74809;DHT22;63338;39.544;2.596;2023-06-14T09:53:47;26.90;68.40
74809;DHT22;63338;39.544;2.596;2023-06-14T09:56:45;26.70;69.10
74809;DHT22;63338;39.544;2.596;2023-06-14T10:00:08;26.60;69.40
74809;DHT22;63338;39.544;2.596;2023-06-14T10:02:38;26.60;69.60
74809;DHT22;63338;39.544;2.596;2023-06-14T10:05:15;26.60;69.70
74809;DHT22;63338;39.544;2.596;2023-06-14T10:07:53;26.70;68.90
74809;DHT22;63338;39.544;2.596;2023-06-14T10:22:38;29.80;62.40
74809;DHT22;63338;39.544;2.596;2023-06-14T10:26:18;30.90;60.30
74809;DHT22;63338;39.544;2.596;2023-06-14T10:37:13;31.90;58.20
74809;DHT22;63338;39.544;2.596;2023-06-14T10:40:35;32.10;57.80
74809;DHT22;63338;39.544;2.596;2023-06-14T10:43:24;31.90;57.30
74809;DHT22;63338;39.544;2.596;2023-06-14T10:46:15;31.30;58.70
74809;DHT22;63338;39.544;2.596;2023-06-14T10:50:02;30.70;59.30
74809;DHT22;63338;39.544;2.596;2023-06-14T10:52:35;29.90;60.20
74809;DHT22;63338;39.544;2.596;2023-06-14T10:55:18;29.30;58.40
74809;DHT22;63338;39.544;2.596;2023-06-14T10:58:01;29.20;59.50
74809;DHT22;63338;39.544;2.596;2023-06-14T11:04:13;29.20;59.60
74809;DHT22;63338;39.544;2.596;2023-06-14T11:06:47;29.90;58.70
74809;DHT22;63338;39.544;2.596;2023-06-14T11:13:06;30.90;57.10
74809;DHT22;63338;39.544;2.596;2023-06-14T11:16:15;31.10;55.70
74809;DHT22;63338;39.544;2.596;2023-06-14T11:18:45;31.30;55.80
74809;DHT22;63338;39.544;2.596;2023-06-14T11:21:21;31.30;55.80
74809;DHT22;63338;39.544;2.596;2023-06-14T11:23:51;31.40;54.80
74809;DHT22;63338;39.544;2.596;2023-06-14T11:26:32;31.30;54.90
74809;DHT22;63338;39.544;2.596;2023-06-14T11:29:01;31.10;55.00
74809;DHT22;63338;39.544;2.596;2023-06-14T11:31:30;31.10;54.20
74809;DHT22;63338;39.544;2.596;2023-06-14T11:51:01;31.50;53.80
74809;DHT22;63338;39.544;2.596;2023-06-14T12:10:20;31.30;52.20
74809;DHT22;63338;39.544;2.596;2023-06-14T12:12:56;31.10;53.00
74809;DHT22;63338;39.544;2.596;2023-06-14T12:15:44;30.70;52.60
74809;DHT22;63338;39.544;2.596;2023-06-14T12:18:10;30.60;53.60
74809;DHT22;63338;39.544;2.596;2023-06-14T12:20:50;30.10;54.80
74809;DHT22;63338;39.544;2.596;2023-06-14T12:26:25;30.00;55.10
74809;DHT22;63338;39.544;2.596;2023-06-14T12:28:53;29.90;55.10
74809;DHT22;63338;39.544;2.596;2023-06-14T12:31:25;30.00;55.10
74809;DHT22;63338;39.544;2.596;2023-06-14T12:37:00;29.80;55.60
74809;DHT22;63338;39.544;2.596;2023-06-14T12:39:26;29.80;55.60
74809;DHT22;63338;39.544;2.596;2023-06-14T12:41:52;29.70;56.40
74809;DHT22;63338;39.544;2.596;2023-06-14T12:44:21;29.60;56.10
74809;DHT22;63338;39.544;2.596;2023-06-14T12:46:49;29.50;55.60
74809;DHT22;63338;39.544;2.596;2023-06-14T12:49:17;29.40;55.40
74809;DHT22;63338;39.544;2.596;2023-06-14T12:52:02;29.20;55.80
74809;DHT22;63338;39.544;2.596;2023-06-14T12:54:31;29.20;56.40
74809;DHT22;63338;39.544;2.596;2023-06-14T12:57:18;29.10;57.20
74809;DHT22;63338;39.544;2.596;2023-06-14T12:59:47;29.00;57.10
74809;DHT22;63338;39.544;2.596;2023-06-14T13:02:20;28.90;57.00
74809;DHT22;63338;39.544;2.596;2023-06-14T13:05:25;28.90;57.30
74809;DHT22;63338;39.544;2.596;2023-06-14T13:07:54;29.10;56.60
74809;DHT22;63338;39.544;2.596;2023-06-14T13:11:08;29.10;56.70
74809;DHT22;63338;39.544;2.596;2023-06-14T13:18:01;29.20;56.60
74809;DHT22;63338;39.544;2.596;2023-06-14T13:20:29;29.30;56.80
74809;DHT22;63338;39.544;2.596;2023-06-14T13:22:55;29.40;56.70
74809;DHT22;63338;39.544;2.596;2023-06-14T13:25:34;29.40;56.80
74809;DHT22;63338;39.544;2.596;2023-06-14T13:28:04;29.40;56.70
74809;DHT22;63338;39.544;2.596;2023-06-14T13:30:35;29.40;57.00
74809;DHT22;63338;39.544;2.596;2023-06-14T13:33:15;29.30;56.80
74809;DHT22;63338;39.544;2.596;2023-06-14T13:35:44;29.30;56.50
74809;DHT22;63338;39.544;2.596;2023-06-14T13:38:13;29.40;56.70
74809;DHT22;63338;39.544;2.596;2023-06-14T13:40:43;29.30;56.40
74809;DHT22;63338;39.544;2.596;2023-06-14T13:43:09;29.20;56.70
74809;DHT22;63338;39.544;2.596;2023-06-14T13:45:51;29.20;56.70
74809;DHT22;63338;39.544;2.596;2023-06-14T13:48:36;29.20;56.90
74809;DHT22;63338;39.544;2.596;2023-06-14T13:55:26;29.30;56.10
74809;DHT22;63338;39.544;2.596;2023-06-14T13:57:54;29.40;56.50
74809;DHT22;63338;39.544;2.596;2023-06-14T14:00:28;29.40;56.50
74809;DHT22;63338;39.544;2.596;2023-06-14T14:14:02;29.60;56.80
74809;DHT22;63338;39.544;2.596;2023-06-14T14:16:42;29.50;56.80
74809;DHT22;63338;39.544;2.596;2023-06-14T14:19:12;29.50;56.70
74809;DHT22;63338;39.544;2.596;2023-06-14T14:22:10;29.40;56.60
74809;DHT22;63338;39.544;2.596;2023-06-14T14:25:14;29.20;56.70
74809;DHT22;63338;39.544;2.596;2023-06-14T14:27:43;29.10;57.20
74809;DHT22;63338;39.544;2.596;2023-06-14T14:30:44;29.20;57.30
74809;DHT22;63338;39.544;2.596;2023-06-14T14:33:16;29.10;58.20
74809;DHT22;63338;39.544;2.596;2023-06-14T14:35:50;29.00;58.80
74809;DHT22;63338;39.544;2.596;2023-06-14T14:38:17;28.80;58.60
74809;DHT22;63338;39.544;2.596;2023-06-14T14:40:54;28.70;58.80
74809;DHT22;63338;39.544;2.596;2023-06-14T14:43:21;28.50;59.40
74809;DHT22;63338;39.544;2.596;2023-06-14T14:45:58;28.40;59.30
74809;DHT22;63338;39.544;2.596;2023-06-14T14:48:27;28.40;59.20
74809;DHT22;63338;39.544;2.596;2023-06-14T14:55:10;28.40;60.10
74809;DHT22;63338;39.544;2.596;2023-06-14T15:02:07;28.40;59.20
74809;DHT22;63338;39.544;2.596;2023-06-14T15:16:14;28.70;58.90
74809;DHT22;63338;39.544;2.596;2023-06-14T15:19:14;28.80;58.80
74809;DHT22;63338;39.544;2.596;2023-06-14T15:22:06;28.70;58.20
74809;DHT22;63338;39.544;2.596;2023-06-14T15:24:33;28.70;58.00
74809;DHT22;63338;39.544;2.596;2023-06-14T15:27:02;28.70;57.60
74809;DHT22;63338;39.544;2.596;2023-06-14T15:29:46;28.70;57.70
74809;DHT22;63338;39.544;2.596;2023-06-14T15:32:36;28.60;57.90
74809;DHT22;63338;39.544;2.596;2023-06-14T15:45:32;28.50;56.30
74809;DHT22;63338;39.544;2.596;2023-06-14T15:48:36;28.50;56.50
74809;DHT22;63338;39.544;2.596;2023-06-14T15:51:34;28.60;57.70
74809;DHT22;63338;39.544;2.596;2023-06-14T15:54:23;28.70;57.30
74809;DHT22;63338;39.544;2.596;2023-06-14T15:57:02;28.60;56.40
74809;DHT22;63338;39.544;2.596;2023-06-14T15:59:28;28.70;56.50
74809;DHT22;63338;39.544;2.596;2023-06-14T16:01:54;28.60;56.70
74809;DHT22;63338;39.544;2.596;2023-06-14T16:04:21;28.70;57.00
74809;DHT22;63338;39.544;2.596;2023-06-14T16:06:51;28.70;57.00
74809;DHT22;63338;39.544;2.596;2023-06-14T16:09:18;28.70;56.40
74809;DHT22;63338;39.544;2.596;2023-06-14T16:11:48;28.70;56.60
74809;DHT22;63338;39.544;2.596;2023-06-14T16:14:14;28.70;56.50
74809;DHT22;63338;39.544;2.596;2023-06-14T16:16:40;28.70;56.90
74809;DHT22;63338;39.544;2.596;2023-06-14T16:19:07;28.60;57.00
74809;DHT22;63338;39.544;2.596;2023-06-14T16:21:33;28.50;56.80
74809;DHT22;63338;39.544;2.596;2023-06-14T16:24:03;28.40;56.70
74809;DHT22;63338;39.544;2.596;2023-06-14T16:26:29;28.40;57.20
74809;DHT22;63338;39.544;2.596;2023-06-14T16:28:56;28.50;57.00
74809;DHT22;63338;39.544;2.596;2023-06-14T16:31:22;28.50;57.50
74809;DHT22;63338;39.544;2.596;2023-06-14T16:33:50;28.50;57.40
74809;DHT22;63338;39.544;2.596;2023-06-14T16:36:23;28.40;57.60
74809;DHT22;63338;39.544;2.596;2023-06-14T16:38:50;28.40;58.10
74809;DHT22;63338;39.544;2.596;2023-06-14T16:41:16;28.40;58.00
74809;DHT22;63338;39.544;2.596;2023-06-14T16:43:42;28.30;57.60
74809;DHT22;63338;39.544;2.596;2023-06-14T16:46:09;28.30;58.40
74809;DHT22;63338;39.544;2.596;2023-06-14T16:48:35;28.30;59.20
74809;DHT22;63338;39.544;2.596;2023-06-14T16:51:01;28.30;58.40
74809;DHT22;63338;39.544;2.596;2023-06-14T16:53:27;28.30;57.80
74809;DHT22;63338;39.544;2.596;2023-06-14T16:55:53;28.40;58.10
74809;DHT22;63338;39.544;2.596;2023-06-14T16:58:20;28.40;57.30
74809;DHT22;63338;39.544;2.596;2023-06-14T17:00:46;28.30;57.50
74809;DHT22;63338;39.544;2.596;2023-06-14T17:03:12;28.30;57.70
74809;DHT22;63338;39.544;2.596;2023-06-14T17:05:57;28.20;57.10
74809;DHT22;63338;39.544;2.596;2023-06-14T17:08:24;28.20;58.00
74809;DHT22;63338;39.544;2.596;2023-06-14T17:10:54;28.20;57.50
74809;DHT22;63338;39.544;2.596;2023-06-14T17:13:21;28.20;57.30
74809;DHT22;63338;39.544;2.596;2023-06-14T17:15:47;28.20;57.40
74809;DHT22;63338;39.544;2.596;2023-06-14T17:18:13;28.20;57.20
74809;DHT22;63338;39.544;2.596;2023-06-14T17:20:45;28.30;57.60
74809;DHT22;63338;39.544;2.596;2023-06-14T17:23:12;28.10;57.70
74809;DHT22;63338;39.544;2.596;2023-06-14T17:25:40;28.30;57.30
74809;DHT22;63338;39.544;2.596;2023-06-14T17:28:06;28.20;56.10
74809;DHT22;63338;39.544;2.596;2023-06-14T17:30:32;28.20;55.70
74809;DHT22;63338;39.544;2.596;2023-06-14T17:32:58;28.20;55.50
74809;DHT22;63338;39.544;2.596;2023-06-14T17:35:24;28.20;55.80
74809;DHT22;63338;39.544;2.596;2023-06-14T17:37:50;28.20;55.80
74809;DHT22;63338;39.544;2.596;2023-06-14T17:40:16;28.30;55.80
74809;DHT22;63338;39.544;2.596;2023-06-14T17:42:42;28.30;56.30
74809;DHT22;63338;39.544;2.596;2023-06-14T17:45:09;28.20;56.20
74809;DHT22;63338;39.544;2.596;2023-06-14T17:47:35;28.20;55.70
74809;DHT22;63338;39.544;2.596;2023-06-14T17:50:01;28.20;54.90
74809;DHT22;63338;39.544;2.596;2023-06-14T17:52:29;28.20;55.10
74809;DHT22;63338;39.544;2.596;2023-06-14T17:54:55;28.20;55.40
74809;DHT22;63338;39.544;2.596;2023-06-14T17:57:22;28.20;56.00
74809;DHT22;63338;39.544;2.596;2023-06-14T17:59:48;28.20;55.90